Portada
METAR-TAF:

METAR-TAF

Aeropuertos :

Gran Canaria, España

Aeropuerto de Gran Canaria

latitud: 27-56N, longitud: 015-23W, altitud: 23 m

Observación

El informe se hizo hace 26 minutos, a las 07:00 UTC
Viento 18 kt del norte
Temperatura 19°C
Humedad 73%
Presión 1018 hPa
Visibilidad 10 km o más
Nubes dispersas a una altura de 2500 ft

METAR: GCLP 170700Z 01018KT 9999 SCT025 19/14 Q1018 NOSIG

Hora: 08:26 (07:26 UTC)

Pronóstico

El informe se hizo hace 5 horas y 26 minutos, a las 02:00 UTC
Pronóstico válido del 17 a las 03 UTC al 18 a las 03 UTC
Viento 16 kt del norte
Visibilidad 10 km o más
Cielo nuboso a una altura de 3000 ft

TAF: GCLP 170200Z 1703/1803 01016KT 9999 BKN030 TX23/1714Z TN18/1706Z

Observaciones y pronósticos meteorológicos de más de 4000 aeropuertos (mensajes METAR y TAF).

Los puntos amarillos y rojos representan las estaciones disponibles.

Ponga el ratón en el punto deseado para ver el nombre de la estación.

Haga clic para ver las observaciones y los pronósticos meteorológicos.

Para cambiar el mapa : haga clic en los botones verdes con una cruz de color negro para hacer un zoom, en el botón verde con un guión para alejar o en las flechas verdes para mapas adyacentes.


METAR-TAF: